sensor_id;sensor_type;location;lat;lon;timestamp;P1;durP1;ratioP1;P2;durP2;ratioP2
52368;SDS011;38298;50.346;3.526;2023-04-03T00:00:28;9.85;;;6.15;;
52368;SDS011;38298;50.346;3.526;2023-04-03T00:02:54;8.98;;;6.50;;
52368;SDS011;38298;50.346;3.526;2023-04-03T00:05:20;13.38;;;7.55;;
52368;SDS011;38298;50.346;3.526;2023-04-03T00:07:46;13.18;;;6.97;;
52368;SDS011;38298;50.346;3.526;2023-04-03T00:10:14;12.07;;;7.03;;
52368;SDS011;38298;50.346;3.526;2023-04-03T00:12:40;17.48;;;7.63;;
52368;SDS011;38298;50.346;3.526;2023-04-03T00:15:06;14.20;;;8.27;;
52368;SDS011;38298;50.346;3.526;2023-04-03T00:17:33;13.55;;;7.20;;
52368;SDS011;38298;50.346;3.526;2023-04-03T00:19:59;18.00;;;8.18;;
52368;SDS011;38298;50.346;3.526;2023-04-03T00:22:25;12.60;;;7.00;;
52368;SDS011;38298;50.346;3.526;2023-04-03T00:24:53;11.73;;;7.18;;
52368;SDS011;38298;50.346;3.526;2023-04-03T00:27:19;11.68;;;7.00;;
52368;SDS011;38298;50.346;3.526;2023-04-03T00:29:45;13.88;;;6.80;;
52368;SDS011;38298;50.346;3.526;2023-04-03T00:32:11;10.07;;;7.00;;
52368;SDS011;38298;50.346;3.526;2023-04-03T00:34:37;13.00;;;7.68;;
52368;SDS011;38298;50.346;3.526;2023-04-03T00:37:03;15.07;;;7.80;;
52368;SDS011;38298;50.346;3.526;2023-04-03T00:39:29;12.75;;;7.57;;
52368;SDS011;38298;50.346;3.526;2023-04-03T00:41:55;11.90;;;7.68;;
52368;SDS011;38298;50.346;3.526;2023-04-03T00:44:23;15.05;;;7.38;;
52368;SDS011;38298;50.346;3.526;2023-04-03T00:47:09;12.93;;;7.03;;
52368;SDS011;38298;50.346;3.526;2023-04-03T00:49:37;10.55;;;6.38;;
52368;SDS011;38298;50.346;3.526;2023-04-03T00:52:04;10.52;;;6.90;;
52368;SDS011;38298;50.346;3.526;2023-04-03T00:54:31;11.20;;;6.68;;
52368;SDS011;38298;50.346;3.526;2023-04-03T00:56:58;13.45;;;7.18;;
52368;SDS011;38298;50.346;3.526;2023-04-03T00:59:25;11.82;;;7.75;;
52368;SDS011;38298;50.346;3.526;2023-04-03T01:01:53;12.30;;;7.32;;
52368;SDS011;38298;50.346;3.526;2023-04-03T01:04:39;12.68;;;7.47;;
52368;SDS011;38298;50.346;3.526;2023-04-03T01:07:14;13.35;;;7.82;;
52368;SDS011;38298;50.346;3.526;2023-04-03T01:09:40;12.88;;;7.43;;
52368;SDS011;38298;50.346;3.526;2023-04-03T01:14:49;15.23;;;7.70;;
52368;SDS011;38298;50.346;3.526;2023-04-03T01:19:51;13.35;;;7.13;;
52368;SDS011;38298;50.346;3.526;2023-04-03T01:22:19;15.20;;;7.82;;
52368;SDS011;38298;50.346;3.526;2023-04-03T01:24:50;10.35;;;6.57;;
52368;SDS011;38298;50.346;3.526;2023-04-03T01:27:18;11.40;;;6.97;;
52368;SDS011;38298;50.346;3.526;2023-04-03T01:29:44;11.68;;;7.03;;
52368;SDS011;38298;50.346;3.526;2023-04-03T01:32:11;13.85;;;7.75;;
52368;SDS011;38298;50.346;3.526;2023-04-03T01:34:37;13.02;;;7.20;;
52368;SDS011;38298;50.346;3.526;2023-04-03T01:37:03;13.38;;;7.30;;
52368;SDS011;38298;50.346;3.526;2023-04-03T01:39:29;14.68;;;7.35;;
52368;SDS011;38298;50.346;3.526;2023-04-03T01:41:55;14.95;;;6.90;;
52368;SDS011;38298;50.346;3.526;2023-04-03T01:44:21;14.95;;;7.43;;
52368;SDS011;38298;50.346;3.526;2023-04-03T01:46:47;10.45;;;6.80;;
52368;SDS011;38298;50.346;3.526;2023-04-03T01:49:13;12.10;;;7.50;;
52368;SDS011;38298;50.346;3.526;2023-04-03T01:51:39;14.63;;;7.47;;
52368;SDS011;38298;50.346;3.526;2023-04-03T01:54:05;14.75;;;7.30;;
52368;SDS011;38298;50.346;3.526;2023-04-03T01:56:31;13.18;;;7.38;;
52368;SDS011;38298;50.346;3.526;2023-04-03T01:58:57;19.65;;;8.13;;
52368;SDS011;38298;50.346;3.526;2023-04-03T02:01:23;12.77;;;7.75;;
52368;SDS011;38298;50.346;3.526;2023-04-03T02:03:50;12.45;;;7.93;;
52368;SDS011;38298;50.346;3.526;2023-04-03T02:06:16;13.25;;;7.97;;
52368;SDS011;38298;50.346;3.526;2023-04-03T02:08:42;13.98;;;7.32;;
52368;SDS011;38298;50.346;3.526;2023-04-03T02:11:08;14.00;;;7.75;;
52368;SDS011;38298;50.346;3.526;2023-04-03T02:13:34;12.30;;;7.35;;
52368;SDS011;38298;50.346;3.526;2023-04-03T02:16:05;12.88;;;7.45;;
52368;SDS011;38298;50.346;3.526;2023-04-03T02:18:31;14.93;;;6.88;;
52368;SDS011;38298;50.346;3.526;2023-04-03T02:20:57;13.75;;;7.55;;
52368;SDS011;38298;50.346;3.526;2023-04-03T02:23:23;12.98;;;7.18;;
52368;SDS011;38298;50.346;3.526;2023-04-03T02:25:49;10.55;;;7.32;;
52368;SDS011;38298;50.346;3.526;2023-04-03T02:28:15;13.90;;;7.57;;
52368;SDS011;38298;50.346;3.526;2023-04-03T02:30:41;14.32;;;7.85;;
52368;SDS011;38298;50.346;3.526;2023-04-03T02:33:07;17.05;;;8.00;;
52368;SDS011;38298;50.346;3.526;2023-04-03T02:35:33;14.23;;;7.75;;
52368;SDS011;38298;50.346;3.526;2023-04-03T02:37:59;12.55;;;7.53;;
52368;SDS011;38298;50.346;3.526;2023-04-03T02:40:25;13.15;;;7.85;;
52368;SDS011;38298;50.346;3.526;2023-04-03T02:42:51;11.85;;;7.47;;
52368;SDS011;38298;50.346;3.526;2023-04-03T02:45:17;13.30;;;7.55;;
52368;SDS011;38298;50.346;3.526;2023-04-03T02:47:43;12.25;;;8.20;;
52368;SDS011;38298;50.346;3.526;2023-04-03T02:50:09;13.32;;;8.02;;
52368;SDS011;38298;50.346;3.526;2023-04-03T02:52:36;12.30;;;8.18;;
52368;SDS011;38298;50.346;3.526;2023-04-03T02:55:03;11.48;;;6.97;;
52368;SDS011;38298;50.346;3.526;2023-04-03T02:57:29;14.02;;;8.48;;
52368;SDS011;38298;50.346;3.526;2023-04-03T02:59:55;12.30;;;7.65;;
52368;SDS011;38298;50.346;3.526;2023-04-03T03:02:21;10.23;;;7.10;;
52368;SDS011;38298;50.346;3.526;2023-04-03T03:04:47;13.77;;;7.72;;
52368;SDS011;38298;50.346;3.526;2023-04-03T03:07:13;14.43;;;7.15;;
52368;SDS011;38298;50.346;3.526;2023-04-03T03:09:39;12.05;;;7.95;;
52368;SDS011;38298;50.346;3.526;2023-04-03T03:12:05;11.98;;;7.18;;
52368;SDS011;38298;50.346;3.526;2023-04-03T03:14:31;12.25;;;8.02;;
52368;SDS011;38298;50.346;3.526;2023-04-03T03:16:57;12.98;;;7.53;;
52368;SDS011;38298;50.346;3.526;2023-04-03T03:19:23;12.18;;;8.27;;
52368;SDS011;38298;50.346;3.526;2023-04-03T03:21:49;11.90;;;7.50;;
52368;SDS011;38298;50.346;3.526;2023-04-03T03:24:16;13.45;;;7.80;;
52368;SDS011;38298;50.346;3.526;2023-04-03T03:26:42;12.63;;;8.35;;
52368;SDS011;38298;50.346;3.526;2023-04-03T03:29:08;13.80;;;8.13;;
52368;SDS011;38298;50.346;3.526;2023-04-03T03:31:34;15.00;;;8.20;;
52368;SDS011;38298;50.346;3.526;2023-04-03T03:34:00;14.35;;;8.02;;
52368;SDS011;38298;50.346;3.526;2023-04-03T03:36:26;13.65;;;7.70;;
52368;SDS011;38298;50.346;3.526;2023-04-03T03:38:52;14.95;;;8.13;;
52368;SDS011;38298;50.346;3.526;2023-04-03T03:41:18;12.23;;;7.97;;
52368;SDS011;38298;50.346;3.526;2023-04-03T03:43:44;12.35;;;7.95;;
52368;SDS011;38298;50.346;3.526;2023-04-03T03:46:13;15.15;;;8.07;;
52368;SDS011;38298;50.346;3.526;2023-04-03T03:48:39;12.15;;;8.02;;
52368;SDS011;38298;50.346;3.526;2023-04-03T03:51:05;13.60;;;7.90;;
52368;SDS011;38298;50.346;3.526;2023-04-03T03:53:31;13.65;;;8.50;;
52368;SDS011;38298;50.346;3.526;2023-04-03T03:55:57;14.43;;;7.93;;
52368;SDS011;38298;50.346;3.526;2023-04-03T03:58:23;15.38;;;8.07;;
52368;SDS011;38298;50.346;3.526;2023-04-03T04:00:49;14.02;;;8.38;;
52368;SDS011;38298;50.346;3.526;2023-04-03T04:03:15;14.07;;;7.72;;
52368;SDS011;38298;50.346;3.526;2023-04-03T04:05:41;12.65;;;8.18;;
52368;SDS011;38298;50.346;3.526;2023-04-03T04:08:07;12.85;;;8.25;;
52368;SDS011;38298;50.346;3.526;2023-04-03T04:10:33;16.60;;;8.50;;
52368;SDS011;38298;50.346;3.526;2023-04-03T04:13:00;15.05;;;8.60;;
52368;SDS011;38298;50.346;3.526;2023-04-03T04:15:26;18.05;;;8.70;;
52368;SDS011;38298;50.346;3.526;2023-04-03T04:17:52;15.07;;;8.45;;
52368;SDS011;38298;50.346;3.526;2023-04-03T04:20:18;13.48;;;8.35;;
52368;SDS011;38298;50.346;3.526;2023-04-03T04:22:44;13.57;;;8.35;;
52368;SDS011;38298;50.346;3.526;2023-04-03T04:25:10;12.98;;;7.82;;
52368;SDS011;38298;50.346;3.526;2023-04-03T04:27:36;13.68;;;7.45;;
52368;SDS011;38298;50.346;3.526;2023-04-03T04:30:03;14.15;;;8.57;;
52368;SDS011;38298;50.346;3.526;2023-04-03T04:32:29;15.93;;;7.93;;
52368;SDS011;38298;50.346;3.526;2023-04-03T04:34:55;15.40;;;8.20;;
52368;SDS011;38298;50.346;3.526;2023-04-03T04:37:21;12.63;;;7.90;;
52368;SDS011;38298;50.346;3.526;2023-04-03T04:39:47;12.65;;;7.80;;
52368;SDS011;38298;50.346;3.526;2023-04-03T04:42:13;15.00;;;8.32;;
52368;SDS011;38298;50.346;3.526;2023-04-03T04:44:40;11.60;;;7.90;;
52368;SDS011;38298;50.346;3.526;2023-04-03T04:47:06;15.45;;;8.38;;
52368;SDS011;38298;50.346;3.526;2023-04-03T04:49:32;12.98;;;7.82;;
52368;SDS011;38298;50.346;3.526;2023-04-03T04:51:58;13.55;;;7.45;;
52368;SDS011;38298;50.346;3.526;2023-04-03T04:54:24;13.50;;;8.10;;
52368;SDS011;38298;50.346;3.526;2023-04-03T04:56:50;18.15;;;7.30;;
52368;SDS011;38298;50.346;3.526;2023-04-03T04:59:16;16.88;;;7.88;;
52368;SDS011;38298;50.346;3.526;2023-04-03T05:01:42;15.07;;;8.02;;
52368;SDS011;38298;50.346;3.526;2023-04-03T05:04:08;15.75;;;8.02;;
52368;SDS011;38298;50.346;3.526;2023-04-03T05:06:34;14.90;;;8.45;;
52368;SDS011;38298;50.346;3.526;2023-04-03T05:09:01;13.55;;;7.55;;
52368;SDS011;38298;50.346;3.526;2023-04-03T05:11:27;14.63;;;7.63;;
52368;SDS011;38298;50.346;3.526;2023-04-03T05:13:53;12.77;;;7.88;;
52368;SDS011;38298;50.346;3.526;2023-04-03T05:16:19;11.70;;;7.45;;
52368;SDS011;38298;50.346;3.526;2023-04-03T05:18:45;12.85;;;7.47;;
52368;SDS011;38298;50.346;3.526;2023-04-03T05:21:11;12.63;;;7.63;;
52368;SDS011;38298;50.346;3.526;2023-04-03T05:23:37;13.50;;;7.43;;
52368;SDS011;38298;50.346;3.526;2023-04-03T05:26:03;17.85;;;9.77;;
52368;SDS011;38298;50.346;3.526;2023-04-03T05:28:29;13.32;;;7.80;;
52368;SDS011;38298;50.346;3.526;2023-04-03T05:30:58;13.95;;;7.28;;
52368;SDS011;38298;50.346;3.526;2023-04-03T05:33:24;18.15;;;8.45;;
52368;SDS011;38298;50.346;3.526;2023-04-03T05:35:51;14.73;;;7.38;;
52368;SDS011;38298;50.346;3.526;2023-04-03T05:38:17;12.98;;;7.90;;
52368;SDS011;38298;50.346;3.526;2023-04-03T05:40:43;14.00;;;8.00;;
52368;SDS011;38298;50.346;3.526;2023-04-03T05:43:09;11.55;;;7.60;;
52368;SDS011;38298;50.346;3.526;2023-04-03T05:45:35;12.18;;;7.20;;
52368;SDS011;38298;50.346;3.526;2023-04-03T05:48:01;11.50;;;7.35;;
52368;SDS011;38298;50.346;3.526;2023-04-03T05:50:27;11.18;;;7.47;;
52368;SDS011;38298;50.346;3.526;2023-04-03T05:52:55;14.98;;;7.97;;
52368;SDS011;38298;50.346;3.526;2023-04-03T05:55:22;11.85;;;7.50;;
52368;SDS011;38298;50.346;3.526;2023-04-03T05:57:48;11.27;;;7.43;;
52368;SDS011;38298;50.346;3.526;2023-04-03T06:00:15;14.00;;;9.05;;
52368;SDS011;38298;50.346;3.526;2023-04-03T06:02:41;11.25;;;7.28;;
52368;SDS011;38298;50.346;3.526;2023-04-03T06:05:07;17.13;;;7.75;;
52368;SDS011;38298;50.346;3.526;2023-04-03T06:07:34;15.60;;;7.90;;
52368;SDS011;38298;50.346;3.526;2023-04-03T06:10:01;15.43;;;7.53;;
52368;SDS011;38298;50.346;3.526;2023-04-03T06:12:27;16.58;;;7.50;;
52368;SDS011;38298;50.346;3.526;2023-04-03T06:14:56;13.45;;;7.18;;
52368;SDS011;38298;50.346;3.526;2023-04-03T06:17:23;14.55;;;7.60;;
52368;SDS011;38298;50.346;3.526;2023-04-03T06:19:49;11.50;;;6.80;;
52368;SDS011;38298;50.346;3.526;2023-04-03T06:22:15;12.93;;;6.97;;
52368;SDS011;38298;50.346;3.526;2023-04-03T06:24:41;14.02;;;7.50;;
52368;SDS011;38298;50.346;3.526;2023-04-03T06:27:09;14.23;;;7.20;;
52368;SDS011;38298;50.346;3.526;2023-04-03T06:29:36;11.90;;;8.15;;
52368;SDS011;38298;50.346;3.526;2023-04-03T06:32:02;16.80;;;8.10;;
52368;SDS011;38298;50.346;3.526;2023-04-03T06:34:28;13.02;;;6.88;;
52368;SDS011;38298;50.346;3.526;2023-04-03T06:36:54;12.50;;;7.30;;
52368;SDS011;38298;50.346;3.526;2023-04-03T06:39:21;11.75;;;7.32;;
52368;SDS011;38298;50.346;3.526;2023-04-03T06:41:47;13.65;;;6.70;;
52368;SDS011;38298;50.346;3.526;2023-04-03T06:44:14;10.13;;;7.10;;
52368;SDS011;38298;50.346;3.526;2023-04-03T06:46:41;11.90;;;6.63;;
52368;SDS011;38298;50.346;3.526;2023-04-03T06:49:07;14.07;;;7.97;;
52368;SDS011;38298;50.346;3.526;2023-04-03T06:51:34;18.52;;;8.00;;
52368;SDS011;38298;50.346;3.526;2023-04-03T06:54:00;17.92;;;7.75;;
52368;SDS011;38298;50.346;3.526;2023-04-03T06:56:27;14.13;;;7.03;;
52368;SDS011;38298;50.346;3.526;2023-04-03T06:58:54;14.23;;;7.55;;
52368;SDS011;38298;50.346;3.526;2023-04-03T07:01:22;9.30;;;6.32;;
52368;SDS011;38298;50.346;3.526;2023-04-03T07:03:48;12.95;;;6.95;;
52368;SDS011;38298;50.346;3.526;2023-04-03T07:06:15;15.13;;;6.65;;
52368;SDS011;38298;50.346;3.526;2023-04-03T07:08:41;12.32;;;6.75;;
52368;SDS011;38298;50.346;3.526;2023-04-03T07:11:07;10.88;;;6.72;;
52368;SDS011;38298;50.346;3.526;2023-04-03T07:13:34;16.02;;;6.60;;
52368;SDS011;38298;50.346;3.526;2023-04-03T07:16:01;13.13;;;6.63;;
52368;SDS011;38298;50.346;3.526;2023-04-03T07:18:28;8.52;;;6.45;;
52368;SDS011;38298;50.346;3.526;2023-04-03T07:20:55;12.23;;;6.60;;
52368;SDS011;38298;50.346;3.526;2023-04-03T07:23:21;12.07;;;6.35;;
52368;SDS011;38298;50.346;3.526;2023-04-03T07:25:47;12.88;;;6.63;;
52368;SDS011;38298;50.346;3.526;2023-04-03T07:28:14;12.90;;;7.50;;
52368;SDS011;38298;50.346;3.526;2023-04-03T07:33:10;15.68;;;7.00;;
52368;SDS011;38298;50.346;3.526;2023-04-03T07:35:36;15.07;;;6.75;;
52368;SDS011;38298;50.346;3.526;2023-04-03T07:38:02;11.90;;;6.80;;
52368;SDS011;38298;50.346;3.526;2023-04-03T07:40:28;13.13;;;7.60;;
52368;SDS011;38298;50.346;3.526;2023-04-03T07:42:55;12.00;;;6.68;;
52368;SDS011;38298;50.346;3.526;2023-04-03T07:45:22;12.45;;;6.60;;
52368;SDS011;38298;50.346;3.526;2023-04-03T07:47:48;12.27;;;7.15;;
52368;SDS011;38298;50.346;3.526;2023-04-03T07:50:15;10.77;;;6.68;;
52368;SDS011;38298;50.346;3.526;2023-04-03T07:52:42;10.43;;;6.05;;
52368;SDS011;38298;50.346;3.526;2023-04-03T07:55:08;11.40;;;6.85;;
52368;SDS011;38298;50.346;3.526;2023-04-03T07:57:34;11.07;;;6.45;;
52368;SDS011;38298;50.346;3.526;2023-04-03T08:00:01;14.50;;;6.70;;
52368;SDS011;38298;50.346;3.526;2023-04-03T08:02:27;10.65;;;6.55;;
52368;SDS011;38298;50.346;3.526;2023-04-03T08:04:53;12.60;;;6.07;;
52368;SDS011;38298;50.346;3.526;2023-04-03T08:07:20;12.85;;;6.32;;
52368;SDS011;38298;50.346;3.526;2023-04-03T08:09:46;11.07;;;6.70;;
52368;SDS011;38298;50.346;3.526;2023-04-03T08:12:12;15.45;;;7.30;;
52368;SDS011;38298;50.346;3.526;2023-04-03T08:14:39;13.82;;;7.07;;
52368;SDS011;38298;50.346;3.526;2023-04-03T08:17:05;13.95;;;6.40;;
52368;SDS011;38298;50.346;3.526;2023-04-03T08:19:34;12.43;;;5.80;;
52368;SDS011;38298;50.346;3.526;2023-04-03T08:22:00;11.18;;;5.85;;
52368;SDS011;38298;50.346;3.526;2023-04-03T08:24:28;9.38;;;5.90;;
52368;SDS011;38298;50.346;3.526;2023-04-03T08:26:54;12.60;;;5.55;;
52368;SDS011;38298;50.346;3.526;2023-04-03T08:29:20;9.43;;;5.20;;
52368;SDS011;38298;50.346;3.526;2023-04-03T08:31:46;9.75;;;5.28;;
52368;SDS011;38298;50.346;3.526;2023-04-03T08:34:14;10.88;;;5.28;;
52368;SDS011;38298;50.346;3.526;2023-04-03T08:36:40;16.80;;;5.60;;
52368;SDS011;38298;50.346;3.526;2023-04-03T08:39:06;7.13;;;4.88;;
52368;SDS011;38298;50.346;3.526;2023-04-03T08:44:03;11.73;;;4.95;;
52368;SDS011;38298;50.346;3.526;2023-04-03T08:49:24;7.57;;;4.38;;
52368;SDS011;38298;50.346;3.526;2023-04-03T08:51:52;8.15;;;3.88;;
52368;SDS011;38298;50.346;3.526;2023-04-03T08:54:35;10.73;;;3.67;;
52368;SDS011;38298;50.346;3.526;2023-04-03T08:57:04;6.72;;;3.33;;
52368;SDS011;38298;50.346;3.526;2023-04-03T08:59:33;7.30;;;3.40;;
52368;SDS011;38298;50.346;3.526;2023-04-03T09:02:00;6.72;;;3.30;;
52368;SDS011;38298;50.346;3.526;2023-04-03T09:04:27;9.13;;;2.72;;
52368;SDS011;38298;50.346;3.526;2023-04-03T09:06:57;5.13;;;2.60;;
52368;SDS011;38298;50.346;3.526;2023-04-03T09:09:39;5.88;;;2.80;;
52368;SDS011;38298;50.346;3.526;2023-04-03T09:12:15;4.68;;;2.80;;
52368;SDS011;38298;50.346;3.526;2023-04-03T09:14:45;3.95;;;2.45;;
52368;SDS011;38298;50.346;3.526;2023-04-03T09:17:49;4.60;;;2.67;;
52368;SDS011;38298;50.346;3.526;2023-04-03T09:22:31;5.57;;;2.90;;
52368;SDS011;38298;50.346;3.526;2023-04-03T09:27:53;6.10;;;2.88;;
52368;SDS011;38298;50.346;3.526;2023-04-03T09:30:20;3.97;;;2.10;;
52368;SDS011;38298;50.346;3.526;2023-04-03T09:32:47;6.35;;;2.40;;
52368;SDS011;38298;50.346;3.526;2023-04-03T09:35:19;5.35;;;2.80;;
52368;SDS011;38298;50.346;3.526;2023-04-03T09:37:46;4.85;;;2.80;;
52368;SDS011;38298;50.346;3.526;2023-04-03T09:42:51;3.67;;;2.15;;
52368;SDS011;38298;50.346;3.526;2023-04-03T09:45:23;5.40;;;2.42;;
52368;SDS011;38298;50.346;3.526;2023-04-03T09:47:50;5.53;;;2.58;;
52368;SDS011;38298;50.346;3.526;2023-04-03T09:50:29;5.78;;;2.47;;
52368;SDS011;38298;50.346;3.526;2023-04-03T09:52:55;7.85;;;2.30;;
52368;SDS011;38298;50.346;3.526;2023-04-03T09:55:22;4.72;;;2.70;;
52368;SDS011;38298;50.346;3.526;2023-04-03T09:57:54;3.33;;;2.35;;
52368;SDS011;38298;50.346;3.526;2023-04-03T10:00:22;5.75;;;2.60;;
52368;SDS011;38298;50.346;3.526;2023-04-03T10:02:54;6.65;;;3.20;;
52368;SDS011;38298;50.346;3.526;2023-04-03T10:07:50;4.15;;;2.17;;
52368;SDS011;38298;50.346;3.526;2023-04-03T10:10:20;3.67;;;2.70;;
52368;SDS011;38298;50.346;3.526;2023-04-03T10:12:49;5.57;;;2.17;;
52368;SDS011;38298;50.346;3.526;2023-04-03T10:15:28;3.10;;;2.33;;
52368;SDS011;38298;50.346;3.526;2023-04-03T10:17:59;5.47;;;2.50;;
52368;SDS011;38298;50.346;3.526;2023-04-03T10:25:40;5.00;;;1.83;;
52368;SDS011;38298;50.346;3.526;2023-04-03T10:28:10;3.70;;;2.00;;
52368;SDS011;38298;50.346;3.526;2023-04-03T10:43:53;3.20;;;2.00;;
52368;SDS011;38298;50.346;3.526;2023-04-03T10:46:28;5.55;;;2.10;;
52368;SDS011;38298;50.346;3.526;2023-04-03T10:49:05;7.65;;;2.72;;
52368;SDS011;38298;50.346;3.526;2023-04-03T10:51:44;4.88;;;2.30;;
52368;SDS011;38298;50.346;3.526;2023-04-03T10:54:12;4.55;;;2.15;;
52368;SDS011;38298;50.346;3.526;2023-04-03T10:56:40;4.13;;;2.10;;
52368;SDS011;38298;50.346;3.526;2023-04-03T10:59:18;4.38;;;1.90;;
52368;SDS011;38298;50.346;3.526;2023-04-03T11:01:51;3.33;;;1.97;;
52368;SDS011;38298;50.346;3.526;2023-04-03T11:04:18;4.32;;;2.10;;
52368;SDS011;38298;50.346;3.526;2023-04-03T11:06:47;6.20;;;2.05;;
52368;SDS011;38298;50.346;3.526;2023-04-03T11:11:46;2.42;;;1.90;;
52368;SDS011;38298;50.346;3.526;2023-04-03T11:14:20;2.22;;;1.50;;
52368;SDS011;38298;50.346;3.526;2023-04-03T11:16:47;7.22;;;2.00;;
52368;SDS011;38298;50.346;3.526;2023-04-03T11:19:16;5.38;;;2.03;;
52368;SDS011;38298;50.346;3.526;2023-04-03T11:24:33;6.85;;;1.90;;
52368;SDS011;38298;50.346;3.526;2023-04-03T11:27:01;4.15;;;1.83;;
52368;SDS011;38298;50.346;3.526;2023-04-03T11:29:32;3.63;;;1.83;;
52368;SDS011;38298;50.346;3.526;2023-04-03T11:34:45;3.92;;;2.08;;
52368;SDS011;38298;50.346;3.526;2023-04-03T11:37:16;3.83;;;1.75;;
52368;SDS011;38298;50.346;3.526;2023-04-03T11:39:47;4.63;;;1.90;;
52368;SDS011;38298;50.346;3.526;2023-04-03T11:42:32;4.35;;;2.20;;
52368;SDS011;38298;50.346;3.526;2023-04-03T12:05:42;3.20;;;1.65;;
52368;SDS011;38298;50.346;3.526;2023-04-03T12:14:12;6.15;;;1.77;;
52368;SDS011;38298;50.346;3.526;2023-04-03T12:29:38;3.90;;;1.80;;
52368;SDS011;38298;50.346;3.526;2023-04-03T12:45:30;2.88;;;1.50;;
52368;SDS011;38298;50.346;3.526;2023-04-03T12:48:06;2.72;;;1.27;;
52368;SDS011;38298;50.346;3.526;2023-04-03T12:50:36;4.00;;;1.55;;
52368;SDS011;38298;50.346;3.526;2023-04-03T12:53:44;3.38;;;1.33;;
52368;SDS011;38298;50.346;3.526;2023-04-03T12:55:55;4.53;;;1.48;;
52368;SDS011;38298;50.346;3.526;2023-04-03T12:58:22;4.40;;;1.10;;
52368;SDS011;38298;50.346;3.526;2023-04-03T13:01:03;3.22;;;1.17;;
52368;SDS011;38298;50.346;3.526;2023-04-03T13:03:29;2.67;;;1.25;;
52368;SDS011;38298;50.346;3.526;2023-04-03T13:05:57;2.70;;;1.17;;
52368;SDS011;38298;50.346;3.526;2023-04-03T13:08:24;2.25;;;1.30;;
52368;SDS011;38298;50.346;3.526;2023-04-03T13:11:03;5.07;;;1.40;;
52368;SDS011;38298;50.346;3.526;2023-04-03T13:13:31;2.50;;;1.30;;
52368;SDS011;38298;50.346;3.526;2023-04-03T13:15:57;6.20;;;1.60;;
52368;SDS011;38298;50.346;3.526;2023-04-03T13:18:31;7.15;;;1.40;;
52368;SDS011;38298;50.346;3.526;2023-04-03T13:20:58;3.35;;;1.70;;
52368;SDS011;38298;50.346;3.526;2023-04-03T13:23:26;5.03;;;1.30;;
52368;SDS011;38298;50.346;3.526;2023-04-03T13:25:52;8.30;;;1.33;;
52368;SDS011;38298;50.346;3.526;2023-04-03T13:28:22;1.98;;;1.08;;
52368;SDS011;38298;50.346;3.526;2023-04-03T13:30:58;3.05;;;1.30;;
52368;SDS011;38298;50.346;3.526;2023-04-03T13:33:26;3.03;;;1.30;;
52368;SDS011;38298;50.346;3.526;2023-04-03T13:35:56;1.60;;;1.23;;
52368;SDS011;38298;50.346;3.526;2023-04-03T13:38:25;1.77;;;1.20;;
52368;SDS011;38298;50.346;3.526;2023-04-03T13:40:52;7.47;;;2.47;;
52368;SDS011;38298;50.346;3.526;2023-04-03T13:43:26;3.17;;;1.50;;
52368;SDS011;38298;50.346;3.526;2023-04-03T13:45:57;3.47;;;1.42;;
52368;SDS011;38298;50.346;3.526;2023-04-03T13:48:23;2.60;;;1.70;;
52368;SDS011;38298;50.346;3.526;2023-04-03T13:53:19;3.60;;;1.90;;
52368;SDS011;38298;50.346;3.526;2023-04-03T13:58:23;2.78;;;1.50;;
52368;SDS011;38298;50.346;3.526;2023-04-03T14:03:24;2.90;;;1.30;;
52368;SDS011;38298;50.346;3.526;2023-04-03T14:05:51;3.25;;;1.48;;
52368;SDS011;38298;50.346;3.526;2023-04-03T14:08:17;4.70;;;1.10;;
52368;SDS011;38298;50.346;3.526;2023-04-03T14:10:43;2.35;;;1.00;;
52368;SDS011;38298;50.346;3.526;2023-04-03T14:13:13;1.75;;;0.90;;
52368;SDS011;38298;50.346;3.526;2023-04-03T14:15:40;2.38;;;1.25;;
52368;SDS011;38298;50.346;3.526;2023-04-03T14:18:09;3.00;;;0.98;;
52368;SDS011;38298;50.346;3.526;2023-04-03T14:20:36;4.25;;;1.10;;
52368;SDS011;38298;50.346;3.526;2023-04-03T14:23:02;2.55;;;0.85;;
52368;SDS011;38298;50.346;3.526;2023-04-03T14:25:27;4.18;;;1.02;;
52368;SDS011;38298;50.346;3.526;2023-04-03T14:27:54;2.10;;;0.80;;
52368;SDS011;38298;50.346;3.526;2023-04-03T14:30:27;4.40;;;0.70;;
52368;SDS011;38298;50.346;3.526;2023-04-03T14:32:54;2.75;;;0.65;;
52368;SDS011;38298;50.346;3.526;2023-04-03T14:35:20;1.67;;;0.75;;
52368;SDS011;38298;50.346;3.526;2023-04-03T14:37:47;0.75;;;0.52;;
52368;SDS011;38298;50.346;3.526;2023-04-03T14:40:19;5.07;;;0.80;;
52368;SDS011;38298;50.346;3.526;2023-04-03T14:42:45;6.35;;;0.70;;
52368;SDS011;38298;50.346;3.526;2023-04-03T14:45:14;1.42;;;0.80;;
52368;SDS011;38298;50.346;3.526;2023-04-03T14:47:42;2.63;;;0.60;;
52368;SDS011;38298;50.346;3.526;2023-04-03T14:50:12;0.93;;;0.50;;
52368;SDS011;38298;50.346;3.526;2023-04-03T14:52:39;2.08;;;0.60;;
52368;SDS011;38298;50.346;3.526;2023-04-03T14:55:05;2.20;;;0.90;;
52368;SDS011;38298;50.346;3.526;2023-04-03T14:57:32;0.95;;;0.57;;
52368;SDS011;38298;50.346;3.526;2023-04-03T14:59:58;2.55;;;0.70;;
52368;SDS011;38298;50.346;3.526;2023-04-03T15:02:29;2.78;;;0.90;;
52368;SDS011;38298;50.346;3.526;2023-04-03T15:04:56;1.85;;;0.80;;
52368;SDS011;38298;50.346;3.526;2023-04-03T15:07:23;2.97;;;0.70;;
52368;SDS011;38298;50.346;3.526;2023-04-03T15:09:49;0.43;;;0.40;;
52368;SDS011;38298;50.346;3.526;2023-04-03T15:12:15;1.05;;;0.60;;
52368;SDS011;38298;50.346;3.526;2023-04-03T15:14:41;5.63;;;0.80;;
52368;SDS011;38298;50.346;3.526;2023-04-03T15:17:10;5.03;;;0.90;;
52368;SDS011;38298;50.346;3.526;2023-04-03T15:19:40;1.75;;;0.80;;
52368;SDS011;38298;50.346;3.526;2023-04-03T15:22:06;1.00;;;0.52;;
52368;SDS011;38298;50.346;3.526;2023-04-03T15:24:32;2.08;;;0.60;;
52368;SDS011;38298;50.346;3.526;2023-04-03T15:26:58;3.08;;;0.70;;
52368;SDS011;38298;50.346;3.526;2023-04-03T15:29:25;1.60;;;0.57;;
52368;SDS011;38298;50.346;3.526;2023-04-03T15:31:51;0.98;;;0.60;;
52368;SDS011;38298;50.346;3.526;2023-04-03T15:34:18;4.78;;;0.60;;
52368;SDS011;38298;50.346;3.526;2023-04-03T15:36:46;1.92;;;0.60;;
52368;SDS011;38298;50.346;3.526;2023-04-03T15:39:12;1.27;;;0.60;;
52368;SDS011;38298;50.346;3.526;2023-04-03T15:41:38;4.72;;;0.68;;
52368;SDS011;38298;50.346;3.526;2023-04-03T15:44:05;1.50;;;0.60;;
52368;SDS011;38298;50.346;3.526;2023-04-03T15:46:31;1.88;;;0.65;;
52368;SDS011;38298;50.346;3.526;2023-04-03T15:48:57;0.80;;;0.40;;
52368;SDS011;38298;50.346;3.526;2023-04-03T15:51:23;1.55;;;0.50;;
52368;SDS011;38298;50.346;3.526;2023-04-03T15:53:49;2.88;;;0.68;;
52368;SDS011;38298;50.346;3.526;2023-04-03T15:56:15;1.55;;;0.68;;
52368;SDS011;38298;50.346;3.526;2023-04-03T15:58:41;2.85;;;0.90;;
52368;SDS011;38298;50.346;3.526;2023-04-03T16:01:09;1.08;;;0.80;;
52368;SDS011;38298;50.346;3.526;2023-04-03T16:03:35;2.47;;;0.60;;
52368;SDS011;38298;50.346;3.526;2023-04-03T16:06:01;1.00;;;0.70;;
52368;SDS011;38298;50.346;3.526;2023-04-03T16:08:27;2.53;;;0.82;;
52368;SDS011;38298;50.346;3.526;2023-04-03T16:10:53;1.50;;;0.82;;
52368;SDS011;38298;50.346;3.526;2023-04-03T16:13:19;1.67;;;0.75;;
52368;SDS011;38298;50.346;3.526;2023-04-03T16:15:45;2.00;;;0.82;;
52368;SDS011;38298;50.346;3.526;2023-04-03T16:18:11;1.63;;;0.95;;
52368;SDS011;38298;50.346;3.526;2023-04-03T16:20:38;2.25;;;0.70;;
52368;SDS011;38298;50.346;3.526;2023-04-03T16:23:04;2.20;;;0.85;;
52368;SDS011;38298;50.346;3.526;2023-04-03T16:25:31;4.60;;;0.68;;
52368;SDS011;38298;50.346;3.526;2023-04-03T16:27:57;1.33;;;0.50;;
52368;SDS011;38298;50.346;3.526;2023-04-03T16:30:23;3.42;;;0.70;;
52368;SDS011;38298;50.346;3.526;2023-04-03T16:32:49;2.65;;;1.10;;